Flight Track Log - Related Links

Times and Time Zones

All times are in EDT time to prevent confusion due to time zone crossing. See the AWI3725 flight status page for this flight to view local times or setup timezone preferences in your user account.

Time Position Orientation Groundspeed Altitude Reporting Facility
EDT Latitude Longitude Course Direction KTS MPH feet Rate Location/Type
Fri 12:54:16 PM 44.8350 -68.8656 226° Southwest 163 188 2,600  Level Boston Center
Fri 12:55:18 PM 44.8431 -68.9364 279° West 217 250 5,000 2,537 Climbing Boston Center
Fri 12:56:00 PM 44.6108 -69.0783 222° Southwest  Level FlightAware Approximate
Fri 12:56:19 PM 44.7892 -69.0014 221° Southwest 250 288 7,800  Level Boston Center
Fri 12:57:00 PM 44.5436 -69.1623 222° Southwest  Level FlightAware Approximate
Fri 12:57:21 PM 44.7350 -69.0714 223° Southwest 257 296 10,500  Level Boston Center
Fri 12:58:00 PM 44.4779 -69.2484 226° Southwest  Level FlightAware Approximate
Fri 12:58:22 PM 44.6664 -69.1539 221° Southwest 263 303 12,800  Level Boston Center
Fri 12:59:00 PM 44.4149 -69.3384 226° Southwest  Level FlightAware Approximate
Fri 12:59:24 PM 44.6039 -69.2300 221° Southwest 289 333 15,000  Level Boston Center
Fri 01:00:25 PM 44.5419 -69.3039 220° Southwest 290 334 17,400 2,341 Climbing Boston Center
Fri 01:01:27 PM 44.4817 -69.3772 221° Southwest 289 333 19,800 1,854 Climbing Boston Center
Fri 01:02:28 PM 44.4200 -69.4503 220° Southwest 287 330 21,200 1,317 Climbing Boston Center
Fri 01:03:30 PM 44.3583 -69.5247 221° Southwest 288 331 22,500 1,171 Climbing Boston Center
Fri 01:04:31 PM 44.2936 -69.6000 220° Southwest 296 341 23,600 1,024 Climbing Boston Center
Fri 01:05:33 PM 44.2289 -69.6781 221° Southwest 301 346 24,600 976 Climbing Boston Center
Fri 01:06:34 PM 44.1614 -69.7572 220° Southwest 310 357 25,600 1,024 Climbing Boston Center
Fri 01:07:36 PM 44.0950 -69.8358 220° Southwest 311 358 26,700 976 Climbing Boston Center
Fri 01:08:37 PM 44.0292 -69.9139 220° Southwest 310 357 27,600 829 Climbing Boston Center
Fri 01:09:39 PM 43.9636 -69.9889 219° Southwest 306 352 28,400 677 Climbing Boston Center
Fri 01:10:41 PM 43.8992 -70.0658 221° Southwest 305 351 29,000 780 Climbing Boston Center
Fri 01:11:42 PM 43.8233 -70.1567 221° Southwest 298 343 30,000 488 Climbing Boston Center
Fri 01:12:44 PM 43.7569 -70.2328 220° Southwest 306 352 30,000  Level Boston Center
Fri 01:13:45 PM 43.6886 -70.3119 220° Southwest 314 361 30,000  Level Boston Center
Fri 01:14:47 PM 43.6200 -70.3897 219° Southwest 315 362 30,000  Level Boston Center
Fri 01:15:48 PM 43.5533 -70.4686 221° Southwest 315 362 30,000  Level Boston Center
Fri 01:16:50 PM 43.4842 -70.5439 218° Southwest 316 364 30,000  Level Boston Center
Fri 01:17:51 PM 43.4150 -70.6194 218° Southwest 316 364 30,000  Level Boston Center
Fri 01:18:53 PM 43.3314 -70.6747 206° Southwest 339 390 30,000  Level Boston Center
Fri 01:19:54 PM 43.2275 -70.7400 205° Southwest 342 394 30,000  Level Boston Center
Fri 01:20:56 PM 43.1400 -70.7964 205° Southwest 345 397 30,000  Level Boston Center
Fri 01:21:57 PM 43.0503 -70.8494 203° Southwest 348 400 30,000  Level Boston Center
Fri 01:22:59 PM 42.9583 -70.8933 199° South 352 405 30,000  Level Boston Center
Fri 01:24:00 PM 42.8667 -70.9378 200° South 352 405 30,000  Level Boston Center
Fri 01:25:02 PM 42.7761 -70.9831 200° South 352 405 30,000  Level Boston Center
Fri 01:26:03 PM 42.6911 -71.0242 200° South 336 387 30,000  Level Boston Center
Fri 01:27:05 PM 42.6081 -71.0642 200° South 325 374 30,000  Level Boston Center
Fri 01:28:06 PM 42.5400 -71.1467 222° Southwest 294 338 30,000  Level Boston Center
Fri 01:29:08 PM 42.5053 -71.2353 242° Southwest 275 316 30,000  Level Boston Center
Fri 01:30:09 PM 42.4711 -71.3256 243° Southwest 273 314 30,000  Level Boston Center
Fri 01:31:11 PM 42.4350 -71.4178 242° Southwest 274 315 30,000  Level Boston Center
Fri 01:32:12 PM 42.4000 -71.5119 243° Southwest 278 320 30,000  Level Boston Center
Fri 01:33:14 PM 42.3578 -71.6197 242° Southwest 283 326 30,000  Level Boston Center
Fri 01:34:15 PM 42.3211 -71.7156 243° Southwest 283 326 30,000  Level Boston Center
Fri 01:35:17 PM 42.2850 -71.8133 243° Southwest 289 333 30,000  Level Boston Center
Fri 01:36:18 PM 42.2364 -71.9019 233° Southwest 290 334 30,000  Level Boston Center
Fri 01:37:20 PM 42.1869 -71.9906 233° Southwest 292 336 30,000  Level Boston Center
Fri 01:38:21 PM 42.1397 -72.0772 234° Southwest 292 336 30,000  Level Boston Center
Fri 01:39:23 PM 42.0911 -72.1642 233° Southwest 291 335 30,000  Level Boston Center
Fri 01:40:24 PM 42.0433 -72.2494 233° Southwest 290 334 30,000  Level Boston Center
Fri 01:41:26 PM 41.9942 -72.3361 233° Southwest 289 333 30,000  Level Boston Center
Fri 01:42:27 PM 41.9372 -72.4394 233° Southwest 288 331 30,000  Level Boston Center
Fri 01:43:28 PM 41.8875 -72.5253 232° Southwest 288 331 30,000  Level Boston Center
Fri 01:44:30 PM 41.8397 -72.6106 230° Southwest 288 331 30,000  Level Boston Center
Fri 01:45:00 PM 41.8046 -72.6575 230° Southwest  Level FlightAware Approximate
Fri 01:45:31 PM 41.7908 -72.6969 233° Southwest 288 331 30,000  Level Boston Center
Fri 01:46:32 PM 41.7428 -72.7817 233° Southwest 288 331 30,000  Level Boston Center
Fri 01:47:33 PM 41.6939 -72.8672 233° Southwest 288 331 30,000  Level Boston Center
Fri 01:48:35 PM 41.6444 -72.9528 232° Southwest 288 331 30,000  Level Boston Center
Fri 01:49:36 PM 41.5953 -73.0375 232° Southwest 288 331 30,000  Level Boston Center
Fri 01:50:37 PM 41.5464 -73.1228 233° Southwest 288 331 30,000  Level Boston Center
Fri 01:51:39 PM 41.4986 -73.2067 233° Southwest 288 331 30,000  Level Boston Center
Fri 01:52:40 PM 41.4397 -73.3083 232° Southwest 288 331 30,000  Level Boston Center
Fri 01:53:42 PM 41.3917 -73.3925 233° Southwest 289 333 30,000  Level Boston Center
Fri 01:54:43 PM 41.3411 -73.4769 231° Southwest 289 333 30,000  Level Boston Center
Fri 01:55:44 PM 41.2925 -73.5614 233° Southwest 289 333 30,000  Level Boston Center
Fri 01:56:46 PM 41.2422 -73.6458 232° Southwest 289 333 30,000  Level Boston Center
Fri 01:57:47 PM 41.1931 -73.7294 232° Southwest 289 333 30,000  Level Boston Center
Fri 02:00:04 PM 41.0778 -73.9256 232° Southwest 295 339 30,000  Level New York Center
Fri 02:01:03 PM 41.0275 -74.0111 232° Southwest 295 339 30,000  Level New York Center
Fri 02:02:03 PM 40.9753 -74.0967 231° Southwest 295 339 30,000 -248 Level New York Center
Fri 02:03:04 PM 40.9228 -74.1819 231° Southwest 295 339 29,500 -650 Descending New York Center
Fri 02:04:03 PM 40.8703 -74.2644 230° Southwest 295 339 28,700 -750 Descending New York Center
Fri 02:05:04 PM 40.8178 -74.3547 232° Southwest 300 345 28,000 -353 Descending New York Center
Fri 02:06:02 PM 40.7650 -74.4425 232° Southwest 305 351 28,000  Level New York Center
Fri 02:07:03 PM 40.7144 -74.5247 231° Southwest 310 357 28,000  Level New York Center
Fri 02:08:03 PM 40.6636 -74.6122 233° Southwest 310 357 28,000 -50 Level New York Center
Fri 02:09:03 PM 40.6044 -74.7072 231° Southwest 310 357 27,900 -500 Descending New York Center
Fri 02:10:03 PM 40.5494 -74.7914 229° Southwest 310 357 27,000 -857 Descending New York Center
Fri 02:11:02 PM 40.4944 -74.8728 228° Southwest 310 357 26,200 -807 Descending New York Center
Fri 02:12:02 PM 40.4378 -74.9486 226° Southwest 305 351 25,400 -793 Descending New York Center
Fri 02:13:03 PM 40.3783 -75.0322 227° Southwest 305 351 24,600 -689 Descending New York Center
Fri 02:14:04 PM 40.3169 -75.1181 227° Southwest 310 357 24,000 -298 Descending New York Center
Fri 02:15:04 PM 40.2553 -75.2067 228° Southwest 326 375 24,000  Level New York Center
Fri 02:16:02 PM 40.1936 -75.2925 227° Southwest 331 381 24,000 -101 Level New York Center
Fri 02:17:03 PM 40.1297 -75.3806 227° Southwest 331 381 23,800 -900 Descending New York Center
Fri 02:18:02 PM 40.0700 -75.4661 228° Southwest 331 381 22,200 -900 Descending New York Center
Fri 02:19:03 PM 40.0106 -75.5461 226° Southwest 331 381 22,000 -295 Descending New York Center
Fri 02:20:04 PM 39.9528 -75.6344 230° Southwest 331 381 21,600 -650 Descending New York Center
Fri 02:21:03 PM 39.8906 -75.7247 228° Southwest 331 381 20,700 -915 Descending New York Center
Fri 02:22:02 PM 39.8369 -75.8128 232° Southwest 326 375 19,800 -850 Descending New York Center
Fri 02:23:03 PM 39.7811 -75.8981 230° Southwest 320 368 19,000 -400 Descending New York Center
Fri 02:24:02 PM 39.7339 -75.9756 232° Southwest 314 361 19,000 -149 Level New York Center
Fri 02:25:04 PM 39.6781 -76.0606 230° Southwest 314 361 18,700 -1,277 Descending New York Center
Fri 02:27:57 PM 39.5167 -76.3167 235° Southwest 310 357 14,000 -1,622 Descending Potomac TRACON
Fri 02:28:57 PM 39.4667 -76.4000 232° Southwest 301 346 12,400 -992 Descending Potomac TRACON
Fri 02:29:58 PM 39.4000 -76.4667 218° Southwest 313 360 12,000 -298 Descending Potomac TRACON
Fri 02:30:58 PM 39.3167 -76.5333 212° Southwest 312 359 11,800 -684 Descending Potomac TRACON
Fri 02:31:52 PM 39.2667 -76.5833 218° Southwest 297 342 10,700 -947 Descending Potomac TRACON
Fri 02:32:52 PM 39.2000 -76.6333 210° Southwest 274 315 10,000 -347 Descending Potomac TRACON
Fri 02:33:53 PM 39.1333 -76.7000 218° Southwest 276 318 10,000 -149 Level Potomac TRACON
Fri 02:34:53 PM 39.0833 -76.7667 226° Southwest 267 307 9,700 -900 Descending Potomac TRACON
Fri 02:35:53 PM 39.0333 -76.8333 226° Southwest 268 308 8,200 -1,587 Descending Potomac TRACON
Fri 02:36:54 PM 38.9667 -76.9000 218° Southwest 261 300 6,500 -1,091 Descending Potomac TRACON
Fri 02:37:54 PM 38.9167 -76.9333 207° Southwest 262 302 6,000 -350 Descending Potomac TRACON
Fri 02:38:54 PM 38.8333 -76.9500 189° South 264 304 5,800 -991 Descending Potomac TRACON
Fri 02:39:49 PM 38.7667 -76.9500 180° South 254 292 4,100 -1,200 Descending Potomac TRACON
Fri 02:40:49 PM 38.7000 -76.9333 169° South 241 277 3,500 -800 Descending Potomac TRACON
Fri 02:41:49 PM 38.6667 -76.9833 230° Southwest 236 272 2,500 -500 Descending Potomac TRACON
Fri 02:42:49 PM 38.7167 -77.0167 333° Northwest 191 220 2,500 -397 Level Potomac TRACON
Fri 02:43:50 PM 38.7667 -77.0333 345° North 183 211 1,700 -893 Descending Potomac TRACON
Fri 02:44:50 PM 38.8167 -77.0333 360° North 147 169 700 -1,000 Descending Potomac TRACON

Login

Don't have an account? Register now (free) for customized features, flight alerts, and more!